Time;durP1;ratioP1;P1;durP2;ratioP2;P2;SDS_P1;SDS_P2;PMS_P1;PMS_P2;Temp;Humidity;BMP_temperature;BMP_pressure;BME280_temperature;BME280_humidity;BME280_pressure;Samples;Min_cycle;Max_cycle;Signal;HPM_P1;HPM_P2
2022/04/08 00:01:55;;;;;;;16.55;10.02;;;;;;;7.41;67.31;98359.66;4988672;28;20094;-81
2022/04/08 00:04:21;;;;;;;14.57;10.13;;;;;;;7.35;67.07;98360.63;4980708;28;20136;-85
2022/04/08 00:06:47;;;;;;;16.25;10.57;;;;;;;6.99;67.35;98300.06;4969658;28;20050;-84
2022/04/08 00:09:15;;;;;;;18.48;11.73;;;;;;;6.97;66.79;98314.75;4987584;28;20042;-84
2022/04/08 00:11:41;;;;;;;15.13;11.43;;;;;;;7.24;67.29;98365.16;4996338;28;20526;-85
2022/04/08 00:14:07;;;;;;;14.82;10.55;;;;;;;7.01;67.19;98331.94;4984083;28;20065;-83
2022/04/08 00:16:33;;;;;;;16.17;10.32;;;;;;;7.24;67.82;98380.69;4961607;28;20471;-81
2022/04/08 00:19:08;;;;;;;17.45;10.55;;;;;;;7.02;67.83;98337.09;5008768;28;20045;-83
2022/04/08 00:21:34;;;;;;;14.48;9.77;;;;;;;7.20;67.17;98377.28;4961758;28;20035;-85
2022/04/08 00:24:00;;;;;;;13.82;9.70;;;;;;;6.85;67.22;98319.28;4970462;28;20046;-83
2022/04/08 00:26:26;;;;;;;13.02;9.63;;;;;;;7.01;67.45;98337.97;4989326;28;20038;-84
2022/04/08 00:28:53;;;;;;;13.80;9.40;;;;;;;6.88;67.19;98311.47;5000660;28;20645;-84
2022/04/08 00:31:20;;;;;;;14.13;8.90;;;;;;;6.95;67.35;98324.31;4980750;28;20069;-83
2022/04/08 00:33:47;;;;;;;11.70;8.35;;;;;;;7.30;67.44;98371.94;4979468;28;20042;-85
2022/04/08 00:36:13;;;;;;;15.93;9.63;;;;;;;7.02;67.21;98323.28;4978499;28;20034;-84
2022/04/08 00:38:39;;;;;;;12.90;9.02;;;;;;;7.31;67.48;98374.50;4964482;28;20533;-83
2022/04/08 00:41:06;;;;;;;12.93;9.57;;;;;;;7.09;67.31;98332.66;4986181;28;20046;-81
2022/04/08 00:43:34;;;;;;;12.32;8.70;;;;;;;7.28;66.84;98382.34;4991161;28;20392;-84
2022/04/08 00:46:02;;;;;;;12.93;9.18;;;;;;;7.29;67.15;98373.66;5003903;28;20097;-84
2022/04/08 00:48:28;;;;;;;13.73;8.88;;;;;;;7.29;66.51;98388.34;4994063;28;20819;-81
2022/04/08 00:50:54;;;;;;;15.02;9.48;;;;;;;6.90;66.83;98309.72;4994399;28;20042;-82
2022/04/08 00:53:22;;;;;;;13.52;9.10;;;;;;;6.95;66.89;98322.56;4981424;28;20038;-80
2022/04/08 00:55:48;;;;;;;12.07;8.43;;;;;;;6.89;66.11;98308.00;4988987;28;20042;-81
2022/04/08 00:58:15;;;;;;;13.95;8.55;;;;;;;7.09;66.59;98349.00;4982014;28;20061;-82
2022/04/08 01:00:42;;;;;;;13.85;8.35;;;;;;;7.17;66.13;98361.81;4987422;28;20049;-83
2022/04/08 01:03:09;;;;;;;13.48;8.75;;;;;;;7.00;66.11;98332.81;5001791;28;20061;-82
2022/04/08 01:05:35;;;;;;;11.80;7.80;;;;;;;7.27;66.54;98359.94;4974132;28;20050;-82
2022/04/08 01:08:08;;;;;;;10.52;7.78;;;;;;;6.87;66.39;98303.72;4983122;28;20050;-82
2022/04/08 01:10:34;;;;;;;10.98;7.88;;;;;;;7.02;65.62;98333.63;4983370;28;20046;-81
2022/04/08 01:13:01;;;;;;;11.07;8.07;;;;;;;7.22;65.63;98378.09;4978107;28;20399;-85
2022/04/08 01:15:27;;;;;;;12.38;8.00;;;;;;;6.90;65.49;98320.06;4999199;28;20038;-84
2022/04/08 01:17:53;;;;;;;12.45;7.88;;;;;;;6.87;65.23;98320.09;4999887;28;20549;-81
2022/04/08 01:20:19;;;;;;;11.30;8.07;;;;;;;7.04;65.27;98348.28;4995408;28;20030;-84
2022/04/08 01:22:46;;;;;;;10.65;7.43;;;;;;;6.82;65.70;98303.81;4989755;28;20144;-81
2022/04/08 01:25:12;;;;;;;12.45;7.10;;;;;;;6.92;65.44;98318.31;4993033;28;20030;-83
2022/04/08 01:27:40;;;;;;;11.30;7.75;;;;;;;7.12;65.00;98349.84;5000809;28;20056;-84
2022/04/08 01:30:09;;;;;;;10.38;7.35;;;;;;;7.25;64.92;98361.69;4978849;28;20097;-85
2022/04/08 01:32:35;;;;;;;9.55;7.38;;;;;;;7.07;64.82;98337.00;4995716;28;20050;-82
2022/04/08 01:35:03;;;;;;;11.95;6.78;;;;;;;7.14;64.81;98342.91;4971995;28;20030;-82
2022/04/08 01:37:29;;;;;;;16.08;7.00;;;;;;;7.14;64.95;98348.09;4983532;28;20030;-84
2022/04/08 01:39:55;;;;;;;9.07;6.53;;;;;;;6.84;64.61;98299.47;4994726;28;20050;-83
2022/04/08 01:42:24;;;;;;;10.63;7.15;;;;;;;7.13;64.18;98352.41;4958416;28;20045;-83
2022/04/08 01:44:54;;;;;;;10.15;6.88;;;;;;;7.24;64.31;98355.66;4974506;28;20035;-82
2022/04/08 01:47:21;;;;;;;8.55;6.47;;;;;;;7.28;64.38;98371.13;4984086;28;20038;-85
2022/04/08 01:49:47;;;;;;;8.73;6.75;;;;;;;6.95;64.18;98311.38;4977596;28;20053;-82
2022/04/08 01:52:14;;;;;;;9.88;6.45;;;;;;;6.99;64.17;98308.69;4953054;28;20042;-85
2022/04/08 01:54:40;;;;;;;11.15;7.20;;;;;;;6.75;63.81;98278.94;4991525;28;20058;-81
2022/04/08 01:57:06;;;;;;;8.57;6.13;;;;;;;7.28;64.08;98358.19;4972167;28;20506;-84
2022/04/08 01:59:34;;;;;;;8.50;6.28;;;;;;;7.05;63.56;98312.91;4957303;28;20109;-84
2022/04/08 02:02:00;;;;;;;10.77;6.43;;;;;;;7.39;63.71;98367.47;4992146;28;20509;-84
2022/04/08 02:04:27;;;;;;;8.82;6.03;;;;;;;7.43;63.51;98368.25;4987045;28;20145;-83
2022/04/08 02:06:53;;;;;;;8.63;6.13;;;;;;;7.32;63.31;98344.31;4965228;28;20506;-82
2022/04/08 02:09:19;;;;;;;8.68;6.28;;;;;;;7.18;63.47;98316.94;4974267;28;20046;-82
2022/04/08 02:11:46;;;;;;;11.98;6.65;;;;;;;7.32;62.78;98344.31;4991283;28;20046;-82
2022/04/08 02:14:12;;;;;;;7.57;5.90;;;;;;;7.24;62.92;98334.94;4959220;28;20050;-87
2022/04/08 02:16:38;;;;;;;8.40;6.32;;;;;;;7.23;63.10;98322.91;4975678;28;20057;-82
2022/04/08 02:19:04;;;;;;;9.45;6.07;;;;;;;7.35;62.42;98339.94;4981705;28;20046;-84
2022/04/08 02:21:32;;;;;;;9.30;6.00;;;;;;;7.21;62.84;98323.81;4957947;28;20049;-82
2022/04/08 02:23:58;;;;;;;9.43;5.70;;;;;;;7.23;62.89;98319.47;4983491;28;20042;-81
2022/04/08 02:26:24;;;;;;;8.65;5.60;;;;;;;7.27;62.49;98317.66;4991672;28;20030;-83
2022/04/08 02:28:50;;;;;;;7.85;5.80;;;;;;;7.44;61.93;98348.41;4995421;28;20066;-83
2022/04/08 02:31:16;;;;;;;8.57;5.95;;;;;;;7.41;62.00;98349.28;4977961;28;20026;-82
2022/04/08 02:33:42;;;;;;;9.50;6.03;;;;;;;7.33;61.60;98333.09;4965039;28;20133;-81
2022/04/08 02:36:09;;;;;;;10.95;6.00;;;;;;;7.46;61.97;98357.84;4978737;28;20108;-83
2022/04/08 02:38:35;;;;;;;8.90;5.63;;;;;;;7.31;61.32;98340.03;4979542;28;20069;-83
2022/04/08 02:41:01;;;;;;;8.20;5.50;;;;;;;7.47;61.40;98362.13;4972713;28;20046;-86
2022/04/08 02:43:27;;;;;;;8.38;5.72;;;;;;;7.33;61.35;98333.91;4999015;28;20054;-84
2022/04/08 02:45:53;;;;;;;11.00;5.32;;;;;;;7.30;61.47;98341.75;4996221;28;20038;-81
2022/04/08 02:48:19;;;;;;;7.45;5.50;;;;;;;7.43;61.21;98365.66;4976551;28;20041;-83
2022/04/08 02:50:45;;;;;;;8.50;5.45;;;;;;;7.33;61.09;98349.44;4975401;28;20061;-84
2022/04/08 02:53:11;;;;;;;7.95;5.18;;;;;;;7.45;61.01;98356.13;4990737;28;20046;-82
2022/04/08 02:55:38;;;;;;;7.50;5.95;;;;;;;7.28;61.17;98335.75;4971426;28;20174;-84
2022/04/08 02:58:04;;;;;;;9.48;5.40;;;;;;;7.40;61.25;98355.34;4973185;28;20069;-85
2022/04/08 03:00:30;;;;;;;6.70;5.22;;;;;;;7.27;60.99;98343.53;4972964;28;20057;-84
2022/04/08 03:02:57;;;;;;;8.95;5.80;;;;;;;7.50;60.54;98376.78;4971893;28;20137;-82
2022/04/08 03:05:23;;;;;;;8.98;5.32;;;;;;;7.28;60.28;98324.53;4991489;28;20046;-83
2022/04/08 03:07:49;;;;;;;7.65;5.10;;;;;;;7.55;60.35;98364.56;4975843;28;20042;-84
2022/04/08 03:10:15;;;;;;;8.85;5.30;;;;;;;7.26;60.46;98321.13;4967223;28;20042;-82
2022/04/08 03:12:41;;;;;;;9.40;5.15;;;;;;;7.45;59.73;98330.25;4961335;28;20038;-83
2022/04/08 03:15:08;;;;;;;7.32;4.97;;;;;;;7.55;59.67;98346.44;4984356;28;20101;-86
2022/04/08 03:17:36;;;;;;;7.45;4.63;;;;;;;7.71;59.70;98370.31;4987082;28;20046;-84
2022/04/08 03:20:03;;;;;;;7.82;4.90;;;;;;;7.83;59.64;98385.56;4998820;28;20765;-82
2022/04/08 03:22:30;;;;;;;7.53;5.55;;;;;;;7.72;59.65;98353.03;4985407;28;20152;-82
2022/04/08 03:24:56;;;;;;;6.10;4.28;;;;;;;7.53;59.38;98320.59;4983897;28;20052;-81
2022/04/08 03:27:22;;;;;;;7.80;4.57;;;;;;;7.57;59.22;98315.38;4993095;28;20050;-83
2022/04/08 03:29:49;;;;;;;7.68;5.10;;;;;;;7.84;59.14;98353.63;4953635;28;20056;-82
2022/04/08 03:32:15;;;;;;;7.28;4.70;;;;;;;8.07;58.77;98375.59;4981806;28;20136;-80
2022/04/08 03:34:41;;;;;;;9.38;4.80;;;;;;;8.07;58.54;98366.97;5004055;28;20128;-80
2022/04/08 03:37:07;;;;;;;7.57;5.05;;;;;;;8.06;58.24;98354.91;4962464;28;20046;-83
2022/04/08 03:39:33;;;;;;;6.20;4.80;;;;;;;8.38;57.99;98405.19;4996931;28;20034;-83
2022/04/08 03:42:00;;;;;;;8.35;4.78;;;;;;;8.48;58.34;98392.88;4995302;28;20060;-82
2022/04/08 03:44:26;;;;;;;9.90;4.53;;;;;;;8.21;57.00;98330.41;4995063;28;20065;-82
2022/04/08 03:46:52;;;;;;;5.40;4.05;;;;;;;8.38;57.16;98346.41;4976246;28;20095;-84
2022/04/08 03:49:21;;;;;;;6.60;4.45;;;;;;;8.70;57.01;98377.69;4981100;28;20052;-82
2022/04/08 03:51:47;;;;;;;6.38;4.43;;;;;;;8.85;56.77;98399.81;4957853;28;20054;-83
2022/04/08 03:54:14;;;;;;;5.95;4.40;;;;;;;8.79;56.14;98361.06;4978160;28;20322;-84
2022/04/08 03:56:42;;;;;;;6.40;4.93;;;;;;;9.01;56.10;98372.59;4962354;28;20108;-82
2022/04/08 03:59:09;;;;;;;6.78;4.68;;;;;;;9.18;56.10;98379.09;4957131;28;20049;-82
2022/04/08 04:01:36;;;;;;;5.57;4.18;;;;;;;9.39;55.44;98382.00;4965519;28;20038;-84
2022/04/08 04:04:03;;;;;;;5.85;4.22;;;;;;;9.41;54.76;98367.25;4990199;28;20495;-83
2022/04/08 04:06:30;;;;;;;4.63;3.95;;;;;;;9.45;54.94;98342.91;4990183;28;20113;-81
2022/04/08 04:08:56;;;;;;;6.93;4.22;;;;;;;9.61;54.30;98341.59;4956034;28;20050;-81
2022/04/08 04:11:22;;;;;;;6.30;4.20;;;;;;;9.74;53.85;98351.63;4989840;28;20046;-80
2022/04/08 04:13:48;;;;;;;5.72;3.95;;;;;;;10.05;53.38;98374.13;4989079;28;20049;-76
2022/04/08 04:16:14;;;;;;;6.22;4.18;;;;;;;10.24;53.08;98382.22;4991181;28;20034;-80
2022/04/08 04:18:44;;;;;;;5.55;4.40;;;;;;;10.47;52.38;98375.50;4989498;28;20052;-84
2022/04/08 04:21:12;;;;;;;7.13;3.92;;;;;;;10.67;52.26;98406.09;4987519;28;20096;-79
2022/04/08 04:23:37;;;;;;;6.15;4.10;;;;;;;10.77;51.88;98397.09;4985484;28;20142;-77
2022/04/08 04:26:03;;;;;;;8.55;4.38;;;;;;;10.87;51.14;98391.59;4988575;28;20476;-78
2022/04/08 04:28:30;;;;;;;4.60;3.90;;;;;;;10.97;51.00;98387.78;4962743;28;20058;-76
2022/04/08 04:30:59;;;;;;;5.03;3.95;;;;;;;11.14;50.22;98387.22;4986634;28;20516;-79
2022/04/08 04:33:28;;;;;;;6.15;4.20;;;;;;;11.13;50.14;98369.91;4970524;28;20132;-80
2022/04/08 04:35:55;;;;;;;5.43;3.80;;;;;;;11.23;49.54;98373.03;4986438;28;20030;-81
2022/04/08 04:38:27;;;;;;;6.25;3.90;;;;;;;11.23;49.36;98386.06;4971483;28;20491;-81
2022/04/08 04:40:53;;;;;;;4.72;4.05;;;;;;;11.06;49.21;98382.28;4970695;28;20976;-80
2022/04/08 04:43:19;;;;;;;5.45;4.05;;;;;;;10.97;49.17;98386.06;4947738;28;20164;-79
2022/04/08 04:45:45;;;;;;;7.13;3.95;;;;;;;10.98;48.83;98389.50;4974493;28;20093;-79
2022/04/08 04:48:12;;;;;;;6.20;4.10;;;;;;;10.84;49.21;98375.19;4995833;28;20525;-80
2022/04/08 04:50:42;;;;;;;7.10;3.85;;;;;;;10.92;48.66;98400.97;4964654;28;20046;-80
2022/04/08 04:53:08;;;;;;;5.50;3.88;;;;;;;10.87;48.61;98397.66;4985979;28;20052;-79
2022/04/08 04:55:35;;;;;;;6.93;3.85;;;;;;;10.69;48.95;98367.88;4992458;28;20089;-80
2022/04/08 04:58:07;;;;;;;7.38;3.95;;;;;;;10.53;48.45;98347.53;4982282;28;20515;-80
2022/04/08 05:04:01;;;;;;;6.05;4.07;;;;;;;10.46;48.30;98330.47;4974060;28;20047;-79
2022/04/08 05:07:18;;;;;;;7.38;4.32;;;;;;;10.67;48.44;98360.13;4968315;28;20112;-80
2022/04/08 05:09:59;;;;;;;7.00;4.22;;;;;;;10.62;48.20;98350.78;4974633;28;20038;-82
2022/04/08 05:12:43;;;;;;;14.32;5.10;;;;;;;10.95;48.08;98377.44;4953199;28;20045;-80
2022/04/08 05:15:47;;;;;;;5.72;4.20;;;;;;;10.71;47.54;98324.44;4965667;28;20108;-81
2022/04/08 05:22:38;;;;;;;6.90;4.10;;;;;;;11.59;47.12;98396.97;4931549;28;20053;-82
2022/04/08 05:25:16;;;;;;;6.53;4.10;;;;;;;11.79;46.64;98404.97;4916063;29;20058;-82
2022/04/08 05:28:03;;;;;;;5.13;3.70;;;;;;;11.70;46.55;98325.38;4915783;29;20055;-81
2022/04/08 05:31:04;;;;;;;6.30;3.60;;;;;;;11.97;45.66;98275.72;4891720;29;20043;-80
2022/04/08 05:33:38;;;;;;;7.60;3.97;;;;;;;13.10;44.99;98386.88;4934296;29;20054;-81
2022/04/08 05:36:12;;;;;;;5.55;4.30;;;;;;;13.43;44.79;98328.06;4941673;28;20050;-80
2022/04/08 05:38:38;;;;;;;6.40;3.78;;;;;;;14.55;42.94;98318.59;4988003;28;20046;-79
2022/04/08 05:41:04;;;;;;;5.22;4.00;;;;;;;15.85;42.11;98344.38;4970195;28;20128;-82
2022/04/08 05:43:30;;;;;;;7.00;4.20;;;;;;;16.45;40.25;98300.88;4970161;28;20456;-85
2022/04/08 05:45:56;;;;;;;7.45;3.90;;;;;;;16.69;38.65;98317.00;4980502;28;20038;-84
2022/04/08 05:48:28;;;;;;;8.20;4.15;;;;;;;17.12;38.32;98345.22;4971226;28;20130;-85
2022/04/08 05:50:59;;;;;;;7.45;4.47;;;;;;;17.36;37.19;98306.09;4960031;28;20140;-84
2022/04/08 05:53:45;;;;;;;;;;;;;;;;;;;;;
2022/04/08 05:56:15;;;;;;;8.57;4.13;;;;;;;18.09;35.49;98322.72;4971388;28;20391;-82
2022/04/08 05:58:43;;;;;;;7.03;4.25;;;;;;;18.25;34.77;98321.75;4975139;28;20042;-83
2022/04/08 06:01:15;;;;;;;7.18;4.07;;;;;;;18.42;34.41;98316.22;4974782;28;20079;-83
2022/04/08 06:03:44;;;;;;;8.18;4.07;;;;;;;18.73;34.16;98308.97;4966468;28;20045;-81
2022/04/08 06:06:10;;;;;;;7.40;4.30;;;;;;;18.88;33.24;98290.44;4989989;28;20038;-84
2022/04/08 06:08:42;;;;;;;8.48;4.85;;;;;;;19.38;32.50;98367.06;4979185;28;20034;-82
2022/04/08 06:11:08;;;;;;;5.93;3.90;;;;;;;19.34;31.73;98365.56;4988315;28;20053;-81
2022/04/08 06:13:34;;;;;;;6.65;4.13;;;;;;;19.39;31.59;98302.81;4953881;28;20042;-81
2022/04/08 06:16:12;;;;;;;8.00;4.30;;;;;;;20.31;31.01;98353.56;4991861;28;20045;-82
2022/04/08 06:20:15;;;;;;;;;;;;;;;;;;;;;
2022/04/08 06:23:47;;;;;;;5.07;4.22;;;;;;;21.11;29.58;98326.66;4917188;29;20047;-80
2022/04/08 06:26:23;;;;;;;6.13;4.75;;;;;;;20.98;29.60;98295.88;4917465;29;20062;-81
2022/04/08 06:28:52;;;;;;;9.32;4.72;;;;;;;20.89;29.34;98321.19;4934711;29;20059;-81
2022/04/08 06:31:37;;;;;;;8.45;4.50;;;;;;;20.38;28.57;98285.31;4983372;28;20058;-82
2022/04/08 06:34:22;;;;;;;9.35;5.53;;;;;;;20.40;29.18;98338.00;4961829;28;20054;-82
2022/04/08 06:36:57;;;;;;;7.93;5.65;;;;;;;20.06;28.93;98380.88;4993960;28;20046;-81
2022/04/08 06:39:32;;;;;;;7.63;4.70;;;;;;;19.05;29.64;98382.41;4995108;28;20062;-81
2022/04/08 06:42:04;;;;;;;7.13;4.63;;;;;;;18.26;30.41;98373.44;4957849;28;20100;-84
2022/04/08 06:44:31;;;;;;;10.13;5.45;;;;;;;17.75;30.96;98324.78;4983196;28;20038;-83
2022/04/08 06:47:21;;;;;;;8.85;5.90;;;;;;;17.34;31.32;98301.88;4983860;28;20053;-81
2022/04/08 06:49:50;;;;;;;10.57;7.20;;;;;;;17.64;31.50;98377.22;4956985;28;20057;-81
2022/04/08 06:52:16;;;;;;;12.55;8.45;;;;;;;17.13;32.11;98362.69;4970387;28;20065;-83
2022/04/08 06:54:42;;;;;;;10.55;6.43;;;;;;;16.77;32.10;98348.94;4992851;28;20038;-83
2022/04/08 06:57:16;;;;;;;9.77;5.93;;;;;;;16.75;32.47;98373.59;4978108;28;20464;-83
2022/04/08 06:59:59;;;;;;;7.65;4.90;;;;;;;16.67;32.62;98368.75;5000355;28;20041;-82
2022/04/08 07:02:56;;;;;;;6.03;4.57;;;;;;;16.44;33.12;98349.91;4977573;28;20465;-84
2022/04/08 07:05:21;;;;;;;6.82;5.07;;;;;;;16.14;32.59;98310.47;4997787;28;20038;-82
2022/04/08 07:07:55;;;;;;;6.80;4.75;;;;;;;16.45;32.84;98377.00;4968390;28;20112;-83
2022/04/08 07:15:03;;;;;;;8.93;5.53;;;;;;;15.76;32.74;98291.47;4997284;28;20097;-82
2022/04/08 07:18:10;;;;;;;9.75;5.85;;;;;;;15.78;33.19;98271.25;4956470;28;20532;-83
2022/04/08 07:24:58;;;;;;;8.70;5.10;;;;;;;16.75;32.88;98377.06;4902143;29;20063;-83
2022/04/08 07:28:37;;;;;;;6.60;4.88;;;;;;;17.15;32.88;98368.69;4913382;29;20044;-85
2022/04/08 07:31:49;;;;;;;8.43;5.20;;;;;;;17.59;32.01;98317.00;4883068;29;20045;-84
2022/04/08 07:34:29;;;;;;;6.78;5.32;;;;;;;18.05;31.17;98364.16;4873148;29;20052;-87
2022/04/08 07:41:50;;;;;;;6.72;4.97;;;;;;;17.52;31.41;98368.28;4799958;29;20045;-84
2022/04/08 07:44:16;;;;;;;8.55;5.43;;;;;;;17.39;31.69;98383.94;4832302;29;20091;-81
2022/04/08 07:46:42;;;;;;;7.25;5.93;;;;;;;17.27;32.03;98382.91;4937394;28;20046;-84
2022/04/08 07:49:24;;;;;;;9.05;5.53;;;;;;;16.83;32.11;98337.22;4955663;28;20062;-83
2022/04/08 07:52:00;;;;;;;9.65;5.05;;;;;;;16.66;31.94;98359.22;4971866;28;20049;-83
2022/04/08 07:54:49;;;;;;;7.43;5.07;;;;;;;16.84;31.91;98388.81;4970301;28;20047;-82
2022/04/08 07:57:51;;;;;;;6.80;5.00;;;;;;;16.78;31.82;98397.03;4954953;28;20542;-85
2022/04/08 08:04:52;;;;;;;9.70;5.88;;;;;;;17.00;32.34;98341.53;4981354;28;20066;-83
2022/04/08 08:10:54;;;;;;;;;;;;;;;;;;;;;
2022/04/08 08:14:04;;;;;;;11.18;6.85;;;;;;;17.47;31.46;98371.16;4935720;29;20047;-84
2022/04/08 08:20:47;;;;;;;8.45;5.90;;;;;;;17.68;30.84;98370.81;4849196;29;20148;-84
2022/04/08 08:23:48;;;;;;;10.68;5.60;;;;;;;17.47;31.12;98318.59;4885811;29;20051;-85
2022/04/08 08:26:23;;;;;;;10.10;7.57;;;;;;;17.98;30.78;98344.47;4946302;28;20050;-84
2022/04/08 08:28:59;;;;;;;7.93;6.03;;;;;;;17.79;30.27;98314.91;4943611;29;20043;-85
2022/04/08 08:31:26;;;;;;;8.90;5.40;;;;;;;17.45;30.60;98241.59;4926543;29;20128;-86
2022/04/08 08:33:52;;;;;;;12.13;6.03;;;;;;;17.97;30.55;98305.91;4922965;29;20047;-83
2022/04/08 08:36:22;;;;;;;9.93;5.97;;;;;;;18.11;29.86;98317.34;4937118;29;20074;-87
2022/04/08 08:38:49;;;;;;;7.38;5.57;;;;;;;17.92;29.64;98323.75;4938546;29;20063;-87
2022/04/08 08:41:20;;;;;;;8.55;5.70;;;;;;;18.17;29.65;98364.34;4924506;29;20130;-84
2022/04/08 08:43:47;;;;;;;6.82;5.72;;;;;;;17.98;30.02;98297.09;4923103;29;20044;-85
2022/04/08 08:46:18;;;;;;;9.13;5.50;;;;;;;18.31;29.54;98295.84;4943739;29;20042;-84
2022/04/08 08:48:50;;;;;;;7.10;5.97;;;;;;;18.09;29.73;98235.88;4946765;29;20054;-82
2022/04/08 08:51:30;;;;;;;9.68;6.38;;;;;;;18.59;29.00;98286.16;4939731;29;20047;-88
2022/04/08 08:54:05;;;;;;;8.55;6.38;;;;;;;19.00;29.17;98330.97;4935496;29;20087;-85
2022/04/08 08:56:46;;;;;;;6.70;6.00;;;;;;;18.54;28.51;98246.09;4934862;29;20776;-86
2022/04/08 08:59:20;;;;;;;8.90;6.25;;;;;;;18.90;28.57;98309.63;4933429;29;20051;-85
2022/04/08 09:01:53;;;;;;;11.13;5.55;;;;;;;18.99;28.32;98335.38;4919896;29;20400;-86
2022/04/08 09:04:57;;;;;;;9.68;6.53;;;;;;;18.01;28.35;98259.19;4930908;29;20043;-83
2022/04/08 09:07:26;;;;;;;9.13;6.35;;;;;;;17.71;28.97;98289.09;4924064;29;20054;-85
2022/04/08 09:10:00;;;;;;;7.70;6.38;;;;;;;17.67;29.47;98295.47;4933415;29;20068;-91
2022/04/08 09:12:28;;;;;;;8.27;5.50;;;;;;;17.53;29.05;98304.25;4905190;29;20044;-86
2022/04/08 09:15:11;;;;;;;7.88;6.03;;;;;;;17.69;29.88;98273.41;4920623;29;20059;-88
2022/04/08 09:17:40;;;;;;;11.43;5.85;;;;;;;17.99;28.80;98304.00;4927061;29;20044;-82
2022/04/08 09:20:07;;;;;;;7.28;5.45;;;;;;;18.13;28.99;98326.00;4927711;29;20128;-85
2022/04/08 09:23:14;;;;;;;9.25;5.72;;;;;;;18.20;28.63;98319.41;4925885;29;20044;-85
2022/04/08 09:25:44;;;;;;;7.30;5.25;;;;;;;17.89;28.54;98271.31;4896286;29;20059;-89
2022/04/08 09:28:36;;;;;;;8.93;5.57;;;;;;;17.84;28.98;98305.81;4922305;29;20051;-88
2022/04/08 09:31:25;;;;;;;7.57;5.40;;;;;;;17.41;29.59;98269.03;4881330;29;20052;-89
2022/04/08 09:41:15;;;;;;;9.35;5.15;;;;;;;16.67;30.04;98206.81;5239363;23;20487;-88
2022/04/08 09:44:20;;;;;;;;;;;;;;;;;;;;;
2022/04/08 09:51:44;;;;;;;7.65;5.53;;;;;;;15.66;30.43;98209.84;4920415;29;20160;-87
2022/04/08 10:11:19;;;;;;;11.50;6.60;;;;;;;15.95;31.48;98246.78;4265581;27;20051;-86
2022/04/08 10:14:12;;;;;;;9.20;6.50;;;;;;;16.52;31.55;98316.19;4959491;29;20051;-87
2022/04/08 10:17:29;;;;;;;12.40;6.63;;;;;;;16.21;31.81;98233.97;4924862;29;20047;-83
2022/04/08 10:20:28;;;;;;;10.70;7.13;;;;;;;17.26;31.23;98320.75;4926261;29;20071;-87
2022/04/08 10:27:34;;;;;;;11.90;7.55;;;;;;;16.58;31.27;98275.59;4922063;29;20060;-87
2022/04/08 10:30:09;;;;;;;10.60;6.75;;;;;;;16.74;31.31;98304.44;4890961;29;20032;-82
2022/04/08 10:32:40;;;;;;;10.48;7.00;;;;;;;17.40;31.04;98306.78;4920435;29;20056;-86
2022/04/08 10:35:17;;;;;;;10.65;6.80;;;;;;;17.73;30.35;98243.34;4932951;29;20039;-85
2022/04/08 10:38:14;;;;;;;11.77;6.50;;;;;;;18.36;30.03;98317.47;4930968;29;20150;-85
2022/04/08 10:41:13;;;;;;;12.82;7.28;;;;;;;17.41;29.62;98212.03;4903346;29;20043;-84
2022/04/08 10:44:11;;;;;;;15.90;6.82;;;;;;;17.66;30.82;98320.94;4954635;29;20043;-85
2022/04/08 10:46:57;;;;;;;11.63;6.82;;;;;;;16.89;31.27;98301.84;4966180;29;20146;-84
2022/04/08 10:49:50;;;;;;;9.60;6.90;;;;;;;16.34;32.67;98298.88;5016317;23;20032;-83
2022/04/08 10:52:18;;;;;;;9.90;6.45;;;;;;;15.85;33.32;98266.53;4966346;28;20049;-85
2022/04/08 10:54:47;;;;;;;10.82;6.63;;;;;;;15.64;33.80;98252.81;4963193;28;20063;-86
2022/04/08 10:57:13;;;;;;;9.25;6.70;;;;;;;15.79;34.17;98309.69;4977592;28;20038;-86
2022/04/08 10:59:39;;;;;;;8.60;6.40;;;;;;;15.70;35.14;98317.19;4977328;28;20050;-86
2022/04/08 11:02:12;;;;;;;10.25;6.63;;;;;;;15.13;35.15;98268.59;4977217;28;20101;-87
2022/04/08 11:04:44;;;;;;;9.07;6.25;;;;;;;15.07;35.61;98269.78;4969765;28;20527;-87
2022/04/08 11:07:11;;;;;;;8.30;6.18;;;;;;;14.44;36.30;98188.25;4987617;28;20506;-86
2022/04/08 11:09:37;;;;;;;12.60;6.60;;;;;;;15.07;37.19;98319.53;4972888;28;20038;-85
2022/04/08 11:12:06;;;;;;;12.82;6.68;;;;;;;14.86;37.51;98295.28;4957594;28;20137;-85
2022/04/08 11:14:41;;;;;;;8.38;6.47;;;;;;;14.55;37.50;98241.81;4985840;28;20118;-88
2022/04/08 11:17:07;;;;;;;8.07;6.47;;;;;;;14.42;38.31;98208.44;4961275;28;20049;-85
2022/04/08 11:19:36;;;;;;;12.38;6.93;;;;;;;14.59;38.25;98252.03;4975284;28;20064;-85
2022/04/08 11:22:11;;;;;;;10.48;7.00;;;;;;;14.57;38.70;98222.47;4970111;28;20038;-86
2022/04/08 11:24:39;;;;;;;12.77;7.38;;;;;;;14.90;38.68;98276.72;4961504;28;20134;-84
2022/04/08 11:27:05;;;;;;;9.85;6.72;;;;;;;14.71;39.11;98249.78;4954895;28;20516;-83
2022/04/08 11:30:25;;;;;;;9.00;7.25;;;;;;;14.82;39.54;98278.03;4974650;28;20382;-82
2022/04/08 11:33:11;;;;;;;10.07;6.38;;;;;;;14.65;39.46;98240.44;4955434;28;20475;-84
2022/04/08 11:35:39;;;;;;;9.50;7.18;;;;;;;14.00;39.83;98126.75;4990096;28;20053;-82
2022/04/08 11:38:33;;;;;;;10.57;7.65;;;;;;;14.85;39.94;98267.41;4972934;28;20066;-85
2022/04/08 11:41:06;;;;;;;10.68;7.00;;;;;;;14.50;39.83;98249.91;4943511;28;20061;-86
2022/04/08 11:43:39;;;;;;;9.45;6.88;;;;;;;14.48;40.67;98233.44;4953823;28;20406;-83
2022/04/08 11:47:11;;;;;;;9.82;6.47;;;;;;;14.72;40.91;98252.31;4987755;28;20038;-82
2022/04/08 11:49:37;;;;;;;10.75;6.95;;;;;;;14.10;40.72;98182.06;4980280;28;20065;-86
2022/04/08 11:52:05;;;;;;;9.18;6.90;;;;;;;14.53;41.41;98227.97;4982651;28;20054;-83
2022/04/08 11:55:10;;;;;;;10.55;6.75;;;;;;;14.64;41.03;98262.31;4971962;28;20046;-86
2022/04/08 11:57:38;;;;;;;10.57;4.90;;;;;;;14.19;41.34;98225.25;4968515;28;20093;-87
2022/04/08 12:00:07;;;;;;;13.90;5.80;;;;;;;14.46;41.44;98243.13;5008235;28;20105;-85
2022/04/08 12:02:53;;;;;;;10.50;5.72;;;;;;;14.29;41.10;98234.34;4997196;28;20049;-82
2022/04/08 12:05:30;;;;;;;14.32;6.50;;;;;;;14.42;41.53;98250.28;4974498;28;20165;-83
2022/04/08 12:07:59;;;;;;;9.23;5.65;;;;;;;14.13;41.61;98217.69;4967993;28;20038;-83
2022/04/08 12:10:27;;;;;;;7.55;5.70;;;;;;;14.13;41.68;98209.84;4968709;28;20038;-82
2022/04/08 12:12:53;;;;;;;7.97;5.30;;;;;;;14.28;41.54;98234.41;4959594;28;20038;-84
2022/04/08 12:15:23;;;;;;;8.90;5.28;;;;;;;14.23;41.66;98194.56;4972105;28;20201;-84
2022/04/08 12:18:06;;;;;;;9.48;4.90;;;;;;;14.60;41.20;98238.03;4952696;28;20481;-81
2022/04/08 12:20:39;;;;;;;9.02;5.25;;;;;;;14.36;40.68;98213.97;4973524;28;20077;-84
2022/04/08 12:23:09;;;;;;;10.63;4.93;;;;;;;14.02;40.86;98158.06;4968454;28;20111;-81
2022/04/08 12:25:37;;;;;;;8.77;4.72;;;;;;;14.31;40.71;98211.56;4967829;28;20294;-83
2022/04/08 12:28:18;;;;;;;7.32;4.60;;;;;;;14.52;40.86;98250.69;4984603;28;20038;-83
2022/04/08 12:30:44;;;;;;;9.45;5.03;;;;;;;14.37;40.27;98223.50;4966466;28;20128;-83
2022/04/08 12:33:24;;;;;;;10.25;5.38;;;;;;;13.96;40.56;98197.59;4984253;28;20042;-80
2022/04/08 12:35:54;;;;;;;9.50;5.40;;;;;;;13.97;41.08;98244.59;4979468;28;20046;-81
2022/04/08 12:38:23;;;;;;;9.90;6.05;;;;;;;13.87;41.52;98243.34;4996336;28;20062;-82
2022/04/08 12:40:57;;;;;;;12.38;5.70;;;;;;;13.62;41.79;98231.41;4978029;28;20106;-85
2022/04/08 12:43:37;;;;;;;8.73;5.38;;;;;;;13.58;42.14;98236.84;4972881;28;20037;-81
2022/04/08 12:46:04;;;;;;;7.05;5.10;;;;;;;13.25;42.12;98188.63;4965389;28;20049;-83
2022/04/08 12:48:42;;;;;;;7.18;5.15;;;;;;;13.37;42.37;98229.88;4984586;28;20390;-86
2022/04/08 12:51:08;;;;;;;7.13;5.20;;;;;;;13.43;42.25;98254.09;4977243;28;20510;-81
2022/04/08 12:53:36;;;;;;;7.28;5.05;;;;;;;13.19;42.70;98226.34;4960443;28;20177;-80
2022/04/08 12:56:05;;;;;;;8.43;5.80;;;;;;;13.35;42.60;98236.13;4991082;28;20057;-82
2022/04/08 12:58:34;;;;;;;9.52;4.75;;;;;;;13.27;43.07;98210.31;4944601;28;20038;-86
2022/04/08 13:01:09;;;;;;;8.45;5.20;;;;;;;13.28;42.89;98182.44;4978115;28;20065;-83
2022/04/08 13:03:38;;;;;;;5.43;4.60;;;;;;;13.37;42.58;98171.56;4992273;28;20069;-80
2022/04/08 13:06:06;;;;;;;7.95;4.82;;;;;;;13.51;42.41;98195.31;4994419;28;20152;-85
2022/04/08 13:08:35;;;;;;;8.82;4.95;;;;;;;13.11;42.64;98129.22;4963493;28;20034;-84
2022/04/08 13:11:14;;;;;;;6.72;5.13;;;;;;;13.42;42.28;98159.16;5006007;28;20076;-83
2022/04/08 13:13:52;;;;;;;6.70;4.60;;;;;;;13.65;42.14;98188.59;4978487;28;20113;-81
2022/04/08 13:16:59;;;;;;;10.57;5.57;;;;;;;14.01;41.81;98213.94;4972307;28;20077;-83